• Join FlightAware (Why Join?)
  • Login
  • US Flag 
03:56AM EDT


 

Airport Tracker/Info


-or-


 

Live Flight TrackerFlight Track Log ✈ N988QC ✈ 09-Jul-2013 ✈ KRST - KTEB

Flight Track Log - Related Links

Times and Time Zones

All times are in EDT time to prevent confusion due to time zone crossing. See the N988QC flight status page for this flight to view local times or setup timezone preferences in your user account.

Time Position Orientation Groundspeed Altitude Reporting Facility
EDT Latitude Longitude Course Direction KTS MPH feet Rate Location/Type
10:27AM 43.8892 -92.3797 90° East 254 292 4,300  Level Chicago Center
10:27AM 43.8911 -92.2956 88° East 289 333 5,100 2,400 Climbing Minneapolis Center
10:28AM 43.8906 -92.1803 90° East 298 343 8,500 2,340 Climbing Minneapolis Center
10:29AM 43.8947 -92.0733 87° East 307 353 10,000 2,100 Climbing Minneapolis Center
10:31AM 43.8694 -91.9244 103° East 339 390 12,900 2,700 Climbing Minneapolis Center
10:32AM 43.9000 -91.5211 90° East  Level FlightAware Approximate
10:32AM 43.8456 -91.7933 104° East 351 404 15,700  Level Minneapolis Center
10:33AM 43.8544 -91.6564 85° East 355 409 18,500 2,220 Climbing Minneapolis Center
10:34AM 43.8808 -91.5158 75° East 365 420 20,300 1,260 Climbing Minneapolis Center
10:35AM 43.9069 -91.3703 76° East 376 433 21,100 960 Climbing Minneapolis Center
10:36AM 43.9306 -91.2131 78° East 398 458 22,300 1,320 Climbing Minneapolis Center
10:37AM 43.9642 -91.0225 76° East 420 483 23,900 1,320 Climbing Minneapolis Center
10:38AM 44.0117 -90.8383 70° East 425 489 25,300 1,020 Climbing Minneapolis Center
10:39AM 44.0833 -90.7033 54° Northeast 435 501 26,300 1,140 Climbing Minneapolis Center
10:40AM 44.1631 -90.5769 49° Northeast 437 503 27,700 1,260 Climbing Minneapolis Center
10:41AM 44.2472 -90.4239 52° Northeast 430 495 29,000 900 Climbing Minneapolis Center
10:42AM 44.2447 -90.2561 91° East 434 499 29,600 540 Climbing Minneapolis Center
10:43AM 44.2028 -90.0942 110° East 443 510 30,200 660 Climbing Minneapolis Center
10:44AM 44.1553 -89.9283 112° Southeast 457 526 31,000 360 Climbing Minneapolis Center
10:45AM 44.0978 -89.7319 112° Southeast 468 539 31,000 120 Level Chicago Center
10:46AM 44.0478 -89.5550 111° Southeast 487 560 31,300 780 Climbing Chicago Center
10:47AM 43.9978 -89.3811 112° Southeast 486 559 32,700 1,020 Climbing Chicago Center
10:48AM 43.9386 -89.1822 112° Southeast 478 550 33,500 600 Climbing Chicago Center
10:49AM 43.8878 -89.0111 112° Southeast 479 551 34,000 300 Climbing Chicago Center
10:50AM 43.8467 -88.8303 107° East 490 564 34,200 360 Climbing Chicago Center
10:52AM 43.8250 -88.6369 99° East 499 574 34,800 360 Climbing Chicago Center
10:53AM 43.7997 -88.4447 100° East 499 574 35,000 60 Climbing Chicago Center
10:54AM 43.7744 -88.2475 100° East 513 590 35,000  Level Chicago Center
10:55AM 43.7486 -88.0536 100° East 509 586 35,000  Level Chicago Center
10:56AM 43.7189 -87.8314 100° East 503 579 35,000  Level Chicago Center
10:57AM 43.6936 -87.6439 100° East 496 571 35,000  Level Chicago Center
10:58AM 43.6672 -87.4569 101° East 494 568 35,000  Level Chicago Center
10:59AM 43.6403 -87.2689 101° East 492 566 35,000  Level Chicago Center
11:00AM 43.6147 -87.0856 101° East 489 563 35,000  Level Chicago Center
11:01AM 43.5892 -86.9011 101° East 490 564 35,000  Level Chicago Center
11:02AM 43.5622 -86.7169 101° East 490 564 35,000  Level Chicago Center
11:03AM 43.5306 -86.4961 101° East 490 564 35,000  Level Chicago Center
11:04AM 43.5039 -86.3119 101° East 490 564 35,000  Level Chicago Center
11:05AM 43.4767 -86.1267 101° East 491 565 35,000  Level Chicago Center
11:06AM 43.4494 -85.9422 101° East 490 564 35,000  Level Chicago Center
11:07AM 43.4203 -85.7564 102° East 493 567 35,000  Level Chicago Center
11:08AM 43.3925 -85.5725 102° East 488 562 35,000  Level Chicago Center
11:09AM 43.3633 -85.3897 102° East 488 562 35,000  Level Chicago Center
11:10AM 43.3350 -85.2078 102° East 485 558 35,000  Level Chicago Center
11:11AM 43.3064 -85.0286 102° East 481 554 35,000  Level Chicago Center
11:12AM 43.2714 -84.8133 103° East 480 552 35,000  Level Chicago Center
11:13AM 43.2425 -84.6336 102° East 483 556 35,000  Level Chicago Center
11:14AM 43.2125 -84.4536 103° East 485 558 35,000  Level Chicago Center
11:15AM 43.1875 -84.3219 105° East 477 549 35,000  Level Cleveland Center
11:16AM 43.1578 -84.1408 103° East 477 549 35,000  Level Cleveland Center
11:17AM 43.1278 -83.9600 103° East 477 549 35,000  Level Cleveland Center
11:18AM 43.0975 -83.7792 103° East 482 555 35,000  Level Cleveland Center
11:19AM 43.0647 -83.5983 104° East 482 555 35,000  Level Cleveland Center
11:20AM 43.0339 -83.4208 103° East 482 555 35,000  Level Cleveland Center
11:21AM 43.0006 -83.2431 104° East 477 549 35,000  Level Cleveland Center
11:22AM 42.9692 -83.0603 103° East 482 555 35,000  Level Cleveland Center
11:23AM 42.9433 -82.9033 103° East 477 549 35,000  Level Cleveland Center
11:24AM 42.9092 -82.7289 105° East 477 549 35,000  Level Cleveland Center
11:25AM 42.8769 -82.5522 104° East 477 549 35,000  Level Cleveland Center
11:26AM 42.8444 -82.3756 104° East 477 549 35,000  Level Cleveland Center
11:27AM 42.8136 -82.1992 103° East 477 549 35,000  Level Cleveland Center
11:28AM 42.7783 -82.0231 105° East 477 549 35,000  Level Cleveland Center
11:29AM 42.7450 -81.8469 104° East 477 549 35,000  Level Cleveland Center
11:30AM 42.7094 -81.6542 104° East 484 557 35,000  Level Cleveland Center
11:31AM 42.6756 -81.4811 105° East 479 551 35,000  Level Cleveland Center
11:32AM 42.6392 -81.3058 106° East 479 551 35,000  Level Cleveland Center
11:33AM 42.6069 -81.1333 104° East 471 542 35,000  Level Cleveland Center
11:34AM 42.5722 -80.9608 105° East 478 550 35,000  Level Cleveland Center
11:35AM 42.5372 -80.7833 105° East 478 550 35,000  Level Cleveland Center
11:36AM 42.5039 -80.6114 105° East 478 550 35,000  Level Cleveland Center
11:37AM 42.4706 -80.4564 106° East 470 541 35,000  Level Cleveland Center
11:38AM 42.4347 -80.2850 106° East 470 541 35,000  Level Cleveland Center
11:39AM 42.3967 -80.1081 106° East 475 547 35,000  Level Cleveland Center
11:40AM 42.3583 -79.9172 105° East 475 547 35,000  Level Cleveland Center
11:41AM 42.3239 -79.7464 105° East 475 547 35,000  Level Cleveland Center
11:42AM 42.2869 -79.5728 106° East 470 541 35,000  Level Cleveland Center
11:43AM 42.2500 -79.4022 106° East 470 541 35,000  Level Cleveland Center
11:44AM 42.2125 -79.2319 107° East 470 541 35,000  Level Cleveland Center
11:45AM 42.1731 -79.0619 107° East 470 541 35,000  Level Cleveland Center
11:46AM 42.1311 -78.8950 109° East 475 547 35,000  Level Cleveland Center
11:47AM 42.0867 -78.7281 110° East 475 547 35,000  Level Cleveland Center
11:48AM 42.0464 -78.5561 107° East 475 547 35,000  Level Cleveland Center
11:50AM 41.9500 -78.2000 110° East 480 552 35,000  Level Toronto Center
11:51AM 41.9000 -78.0167 110° East 480 552 35,000  Level Toronto Center
11:52AM 41.8667 -77.8667 107° East 480 552 35,000  Level Toronto Center
11:53AM 41.8167 -77.7167 114° Southeast 480 552 35,000  Level Toronto Center
11:54AM 41.7703 -77.4986 106° East 477 549 35,000  Level New York Center
11:55AM 41.7275 -77.3331 109° East 477 549 35,000  Level New York Center
11:56AM 41.6844 -77.1706 109° East 472 543 35,000 -540 Level New York Center
11:57AM 41.6389 -77.0050 110° East 472 543 34,000 -1,800 Descending New York Center
11:58AM 41.5936 -76.8344 109° East 477 549 31,400 -2,220 Descending New York Center
11:59AM 41.5425 -76.6497 110° East 482 555 29,700 -1,740 Descending New York Center
12:00PM 41.4947 -76.4792 110° East 482 555 28,000 -1,740 Descending New York Center
12:01PM 41.4486 -76.3064 110° East 482 555 26,200 -2,040 Descending New York Center
12:02PM 41.3983 -76.1336 111° Southeast 489 563 23,900 -2,160 Descending New York Center
12:03PM 41.3603 -76.0033 111° Southeast 489 563 21,900 -2,160 Descending New York Center
12:04PM 41.3117 -75.8256 110° East 471 542 19,700 -1,980 Descending New York Center
12:05PM 41.2697 -75.6844 112° Southeast 460 529 18,100 -840 Descending New York Center
12:06PM 41.2181 -75.5261 113° Southeast 433 498 18,100 -1,620 Level New York Center
12:07PM 41.1714 -75.3850 114° Southeast 397 457 14,900 -3,360 Descending New York Center
12:08PM 41.1303 -75.2639 114° Southeast 367 422 11,400 -2,580 Descending New York Center
12:09PM 41.0947 -75.1569 114° Southeast 339 390 9,900 -2,220 Descending New York Center
12:10PM 41.0667 -75.0725 114° Southeast 289 333 7,100 -1,980 Descending New York Center
12:11PM 41.0308 -74.9631 113° Southeast 283 326 6,000 -660 Descending New York Center
12:12PM 41.0222 -74.8578 96° East 283 326 5,800 -900 Descending New York Center
12:13PM 41.0250 -74.7700 88° East 273 314 4,300 -900 Descending New York Center
12:14PM 41.0267 -74.6575 89° East 273 314 4,000 -300 Descending New York Center
12:15PM 41.0317 -74.5697 86° East 268 308 3,800 -540 Descending New York Center
12:16PM 41.0225 -74.4703 97° East 256 295 3,000 -420 Descending New York Center
12:17PM 41.0039 -74.3922 108° East 245 282 3,000 -480 Level New York Center
12:18PM 40.9819 -74.2975 107° East 245 282 2,100 -540 Descending New York Center
12:19PM 40.9694 -74.2200 102° East 245 282 2,000 -60 Descending New York Center
12:20PM 40.9489 -74.1392 109° East 240 276 2,000 -120 Level New York Center
12:21PM 40.9178 -74.0664 119° Southeast 214 246 1,800 -720 Descending New York Center
12:22PM 40.8803 -74.0617 175° South 154 177 600 -840 Descending New York Center
12:23PM 40.8431 -74.0517 169° South 143 165 200 -420 Descending New York Center
12:25PM 40.8500 -74.0500 North  Level FlightAware Approximate
12:32PM 40.8501 -74.0608 North  Level Estimated